Time;durP1;ratioP1;P1;durP2;ratioP2;P2;SDS_P1;SDS_P2;PMS_P1;PMS_P2;Temp;Humidity;BMP_temperature;BMP_pressure;BME280_temperature;BME280_humidity;BME280_pressure;Samples;Min_cycle;Max_cycle;Signal;HPM_P1;HPM_P2
2022/03/08 06:00:41;;;;;;;10.50;9.50;;;3.00;91.00;;;;;;1709927;29;20182;-80
2022/03/08 06:01:31;;;;;;;11.60;10.50;;;3.00;91.30;;;;;;1711166;29;20202;-80
2022/03/08 06:02:23;;;;;;;10.40;9.47;;;3.00;91.50;;;;;;1711141;29;20736;-80
2022/03/08 06:03:14;;;;;;;10.48;9.57;;;3.00;91.50;;;;;;1708044;29;20457;-79
2022/03/08 06:04:06;;;;;;;10.32;9.43;;;2.90;91.40;;;;;;1707857;29;20222;-81
2022/03/08 06:04:57;;;;;;;10.77;9.05;;;2.90;91.40;;;;;;1709106;29;20230;-80
2022/03/08 06:05:48;;;;;;;10.37;9.37;;;2.90;91.30;;;;;;1708822;29;20212;-80
2022/03/08 06:06:39;;;;;;;10.15;9.25;;;2.90;91.20;;;;;;1708666;28;20207;-80
2022/03/08 06:07:31;;;;;;;11.03;9.77;;;2.90;91.20;;;;;;1708877;28;20210;-80
2022/03/08 06:08:22;;;;;;;10.75;9.65;;;2.90;91.30;;;;;;1708742;29;20697;-80
2022/03/08 06:09:13;;;;;;;10.20;9.37;;;2.90;91.30;;;;;;1709508;29;20725;-79
2022/03/08 06:10:07;;;;;;;10.00;9.02;;;2.90;91.20;;;;;;1708855;29;20581;-81
2022/03/08 06:10:59;;;;;;;10.40;9.50;;;2.90;91.30;;;;;;1709494;29;20269;-81
2022/03/08 06:11:49;;;;;;;10.77;9.68;;;2.90;91.20;;;;;;1709602;29;20590;-80
2022/03/08 06:12:41;;;;;;;10.80;9.50;;;2.80;91.20;;;;;;1709384;29;20579;-81
2022/03/08 06:13:32;;;;;;;10.52;9.50;;;2.80;91.30;;;;;;1708382;29;20671;-80
2022/03/08 06:14:24;;;;;;;10.60;9.63;;;2.80;91.30;;;;;;1707760;29;20709;-80
2022/03/08 06:15:15;;;;;;;11.18;10.07;;;2.80;91.40;;;;;;1709178;29;20693;-80
2022/03/08 06:16:08;;;;;;;10.43;9.53;;;2.80;91.60;;;;;;1709171;29;20585;-81
2022/03/08 06:16:58;;;;;;;10.15;9.25;;;2.80;91.50;;;;;;1709271;29;20206;-81
2022/03/08 06:17:50;;;;;;;10.60;9.70;;;2.90;91.40;;;;;;1709171;29;20221;-82
2022/03/08 06:18:41;;;;;;;10.15;9.35;;;2.90;91.60;;;;;;1707306;29;20240;-79
2022/03/08 06:19:32;;;;;;;11.50;10.50;;;2.90;91.80;;;;;;1707691;28;20206;-80
2022/03/08 06:20:23;;;;;;;11.18;10.20;;;2.90;91.90;;;;;;1709654;28;20202;-80
2022/03/08 06:21:15;;;;;;;12.23;10.87;;;2.90;91.90;;;;;;1712831;28;20273;-79
2022/03/08 06:22:06;;;;;;;11.60;10.40;;;3.00;91.80;;;;;;1713136;28;20244;-80
2022/03/08 06:22:57;;;;;;;10.27;9.37;;;3.00;91.80;;;;;;1707750;29;20206;-79
2022/03/08 06:23:48;;;;;;;10.23;9.30;;;3.00;91.70;;;;;;1707613;29;20237;-79
2022/03/08 06:24:40;;;;;;;10.60;9.37;;;3.00;91.50;;;;;;1707731;29;20202;-79
2022/03/08 06:25:31;;;;;;;10.40;9.50;;;3.00;91.30;;;;;;1707877;29;20450;-79
2022/03/08 06:26:22;;;;;;;11.70;9.27;;;3.00;91.30;;;;;;1707789;29;20205;-79
2022/03/08 06:27:13;;;;;;;10.15;9.35;;;3.10;91.10;;;;;;1707914;29;20206;-79
2022/03/08 06:28:05;;;;;;;10.33;9.43;;;3.10;91.00;;;;;;1707433;29;20222;-80
2022/03/08 06:28:56;;;;;;;10.27;9.38;;;3.10;91.00;;;;;;1707705;29;20206;-79
2022/03/08 06:29:51;;;;;;;10.10;9.20;;;3.10;90.70;;;;;;1708033;28;20285;-79
2022/03/08 06:30:42;;;;;;;10.90;9.88;;;3.10;90.60;;;;;;1709125;28;20198;-79
2022/03/08 06:31:35;;;;;;;10.23;9.33;;;3.10;90.60;;;;;;1710427;28;20225;-80
2022/03/08 06:32:26;;;;;;;10.30;9.38;;;3.10;90.70;;;;;;1702935;28;20249;-80
2022/03/08 06:33:18;;;;;;;10.35;9.35;;;3.10;90.70;;;;;;1707843;28;20198;-79
2022/03/08 06:34:09;;;;;;;11.10;10.10;;;3.10;90.80;;;;;;1708706;28;20668;-79
2022/03/08 06:35:01;;;;;;;11.43;8.63;;;3.10;90.80;;;;;;1708901;28;21541;-79
2022/03/08 06:35:52;;;;;;;10.95;9.85;;;3.10;90.80;;;;;;1710000;28;20464;-79
2022/03/08 06:36:43;;;;;;;11.17;10.10;;;3.20;90.80;;;;;;1709475;28;20209;-79
2022/03/08 06:37:34;;;;;;;11.40;9.25;;;3.20;90.90;;;;;;1708362;28;20216;-79
2022/03/08 06:38:26;;;;;;;10.05;9.15;;;3.20;91.10;;;;;;1707232;28;20206;-79
2022/03/08 06:39:17;;;;;;;10.30;9.30;;;3.20;91.10;;;;;;1708849;28;20210;-78
2022/03/08 06:40:10;;;;;;;10.93;9.83;;;3.20;91.10;;;;;;1709287;28;20237;-81
2022/03/08 06:41:01;;;;;;;10.63;9.52;;;3.20;91.20;;;;;;1709494;28;20457;-78
2022/03/08 06:41:53;;;;;;;11.60;9.50;;;3.20;91.30;;;;;;1708192;28;20293;-79
2022/03/08 06:42:44;;;;;;;10.70;9.63;;;3.20;91.30;;;;;;1709860;28;20450;-78
2022/03/08 06:43:36;;;;;;;12.53;9.97;;;3.30;91.20;;;;;;1708643;28;20224;-79
2022/03/08 06:44:26;;;;;;;11.75;9.43;;;3.30;91.30;;;;;;1707504;28;20217;-79
2022/03/08 06:45:18;;;;;;;9.47;8.47;;;3.30;91.30;;;;;;1707107;28;20245;-78
2022/03/08 06:46:09;;;;;;;10.40;9.40;;;3.30;91.40;;;;;;1709122;28;20872;-79
2022/03/08 06:47:02;;;;;;;11.53;9.43;;;3.30;91.50;;;;;;1709246;28;21330;-78
2022/03/08 06:47:53;;;;;;;11.30;8.80;;;3.30;91.60;;;;;;1709274;28;20462;-79
2022/03/08 06:48:45;;;;;;;10.00;9.00;;;3.30;91.60;;;;;;1709507;28;20289;-78
2022/03/08 06:49:38;;;;;;;11.75;8.85;;;3.40;91.70;;;;;;1708005;28;20446;-79
2022/03/08 06:50:30;;;;;;;10.63;9.52;;;3.40;91.80;;;;;;1708530;28;20194;-79
2022/03/08 06:51:22;;;;;;;10.20;9.15;;;3.40;91.90;;;;;;1709241;28;20210;-79
2022/03/08 06:52:14;;;;;;;11.93;9.60;;;3.40;91.80;;;;;;1704166;28;20242;-79
2022/03/08 06:53:05;;;;;;;13.05;9.02;;;3.40;91.80;;;;;;1702875;29;20199;-80
2022/03/08 06:53:56;;;;;;;13.93;8.70;;;3.40;91.90;;;;;;1703258;29;20250;-79
2022/03/08 06:54:47;;;;;;;12.15;9.93;;;3.40;92.00;;;;;;1703102;29;20218;-80
2022/03/08 06:55:39;;;;;;;11.50;9.55;;;3.40;92.00;;;;;;1702599;29;20191;-79
2022/03/08 06:56:31;;;;;;;10.35;9.23;;;3.50;92.10;;;;;;1703256;29;20658;-79
2022/03/08 06:57:22;;;;;;;12.05;9.65;;;3.50;92.00;;;;;;1705767;28;20209;-79
2022/03/08 06:58:13;;;;;;;11.48;8.45;;;3.50;91.80;;;;;;1708307;28;20201;-80
2022/03/08 06:59:05;;;;;;;9.63;8.63;;;3.60;91.60;;;;;;1709127;28;20293;-80
2022/03/08 06:59:56;;;;;;;9.88;8.88;;;3.60;91.50;;;;;;1710586;28;20541;-80
2022/03/08 07:00:48;;;;;;;9.57;8.50;;;3.70;91.40;;;;;;1707819;28;20205;-80
2022/03/08 07:01:39;;;;;;;11.05;9.88;;;3.70;91.40;;;;;;1708302;28;20454;-79
2022/03/08 07:02:32;;;;;;;11.90;10.43;;;3.70;91.50;;;;;;1708496;28;20221;-79
2022/03/08 07:03:23;;;;;;;16.10;9.95;;;3.70;91.50;;;;;;1708951;28;20464;-80
2022/03/08 07:04:15;;;;;;;10.33;9.27;;;3.80;91.50;;;;;;1709453;28;20240;-80
2022/03/08 07:05:06;;;;;;;10.60;9.63;;;3.80;91.20;;;;;;1709188;28;20206;-80
2022/03/08 07:05:58;;;;;;;14.30;9.10;;;3.80;91.20;;;;;;1708239;28;20191;-80
2022/03/08 07:06:49;;;;;;;10.30;9.23;;;3.90;91.20;;;;;;1708943;28;20222;-79
2022/03/08 07:07:41;;;;;;;12.60;9.83;;;3.90;91.20;;;;;;1708605;28;20297;-79
2022/03/08 07:08:32;;;;;;;9.95;9.05;;;3.90;91.20;;;;;;1708746;28;20849;-80
2022/03/08 07:09:24;;;;;;;10.17;9.13;;;3.90;91.20;;;;;;1708235;28;20202;-79
2022/03/08 07:10:15;;;;;;;9.68;8.82;;;4.00;91.20;;;;;;1708847;28;20891;-80
2022/03/08 07:11:08;;;;;;;9.17;8.30;;;4.00;91.20;;;;;;1709682;28;20190;-79
2022/03/08 07:11:59;;;;;;;10.63;9.52;;;4.10;91.00;;;;;;1708670;28;20280;-79
2022/03/08 07:12:51;;;;;;;13.07;8.43;;;4.10;91.00;;;;;;1707975;28;20202;-79
2022/03/08 07:13:42;;;;;;;10.20;9.20;;;4.10;90.90;;;;;;1708240;28;20488;-80
2022/03/08 07:14:34;;;;;;;10.33;9.07;;;4.10;90.80;;;;;;1707578;28;20266;-79
2022/03/08 07:15:25;;;;;;;9.63;8.55;;;4.10;90.90;;;;;;1708856;28;20455;-81
2022/03/08 07:16:18;;;;;;;9.97;8.77;;;4.10;90.90;;;;;;1708978;28;20293;-79
2022/03/08 07:17:09;;;;;;;9.82;8.77;;;4.20;90.80;;;;;;1707834;28;20541;-80
2022/03/08 07:18:02;;;;;;;9.90;8.90;;;4.20;90.70;;;;;;1709821;28;20204;-81
2022/03/08 07:18:53;;;;;;;12.40;8.98;;;4.20;90.70;;;;;;1709110;28;20941;-80
2022/03/08 07:19:45;;;;;;;10.13;9.13;;;4.30;90.70;;;;;;1709809;28;20624;-79
2022/03/08 07:20:36;;;;;;;11.25;8.57;;;4.30;90.70;;;;;;1709571;28;20469;-79
2022/03/08 07:21:28;;;;;;;9.93;8.90;;;4.30;90.80;;;;;;1709254;28;20221;-79
2022/03/08 07:22:19;;;;;;;10.35;8.57;;;4.30;90.90;;;;;;1708829;28;20827;-80
2022/03/08 07:23:11;;;;;;;9.37;8.37;;;4.40;90.90;;;;;;1709006;28;20289;-79
2022/03/08 07:24:08;;;;;;;9.82;8.82;;;4.40;90.80;;;;;;1708328;28;20317;-80
2022/03/08 07:25:00;;;;;;;9.98;8.98;;;4.40;90.70;;;;;;1708878;28;20627;-80
2022/03/08 07:25:51;;;;;;;10.13;9.23;;;4.40;90.60;;;;;;1708424;28;20202;-80
2022/03/08 07:26:42;;;;;;;9.73;8.73;;;4.50;90.70;;;;;;1708066;28;20206;-79
2022/03/08 07:27:33;;;;;;;9.70;8.80;;;4.50;90.90;;;;;;1708125;28;20286;-79
2022/03/08 07:28:31;;;;;;;16.63;9.83;;;4.50;90.60;;;;;;1708732;28;20198;-79
2022/03/08 07:29:21;;;;;;;9.93;8.30;;;4.50;90.50;;;;;;1709593;28;20198;-80
2022/03/08 07:30:13;;;;;;;9.53;8.63;;;4.60;90.50;;;;;;1709012;28;20258;-79
2022/03/08 07:31:04;;;;;;;8.65;7.85;;;4.60;90.40;;;;;;1708358;28;20234;-80
2022/03/08 07:31:56;;;;;;;10.07;9.13;;;4.60;90.60;;;;;;1709943;28;20229;-80
2022/03/08 07:32:48;;;;;;;9.57;8.68;;;4.60;90.70;;;;;;1708526;28;20213;-79
2022/03/08 07:33:41;;;;;;;9.60;8.70;;;4.60;90.30;;;;;;1708284;28;20222;-79
2022/03/08 07:34:32;;;;;;;9.70;8.82;;;4.60;90.10;;;;;;1709413;28;20626;-79
2022/03/08 07:35:24;;;;;;;9.90;8.67;;;4.70;90.00;;;;;;1708539;28;20628;-79
2022/03/08 07:36:15;;;;;;;10.10;9.10;;;4.60;89.90;;;;;;1707919;28;20224;-80
2022/03/08 07:37:07;;;;;;;9.43;8.63;;;4.60;90.10;;;;;;1707298;28;20256;-80
2022/03/08 07:37:58;;;;;;;9.23;8.43;;;4.70;90.50;;;;;;1709355;28;20252;-79
2022/03/08 07:38:50;;;;;;;10.63;9.63;;;4.70;90.40;;;;;;1708542;28;20206;-80
2022/03/08 07:39:41;;;;;;;9.73;8.85;;;4.70;90.20;;;;;;1709792;28;20244;-80
2022/03/08 07:40:32;;;;;;;10.20;9.20;;;4.70;90.20;;;;;;1708663;28;20198;-81
2022/03/08 07:41:23;;;;;;;9.73;8.82;;;4.80;90.40;;;;;;1708623;28;20446;-79
2022/03/08 07:42:15;;;;;;;9.63;8.63;;;4.80;90.30;;;;;;1709074;28;20204;-80
2022/03/08 07:43:06;;;;;;;10.15;9.15;;;4.80;90.50;;;;;;1708682;28;20243;-80
2022/03/08 07:43:57;;;;;;;9.47;8.57;;;4.80;90.50;;;;;;1708537;28;20226;-79
2022/03/08 07:44:48;;;;;;;10.35;8.65;;;4.90;90.60;;;;;;1708758;28;20635;-80
2022/03/08 07:45:40;;;;;;;10.17;9.17;;;4.90;90.70;;;;;;1711230;28;20201;-80
2022/03/08 07:46:30;;;;;;;9.57;8.77;;;5.00;90.60;;;;;;1708575;28;20256;-80
2022/03/08 07:47:22;;;;;;;9.80;9.00;;;5.00;90.50;;;;;;1708244;28;20195;-80
2022/03/08 07:48:13;;;;;;;9.25;8.40;;;5.00;90.40;;;;;;1707660;28;20209;-80
2022/03/08 07:49:06;;;;;;;9.65;8.75;;;5.00;90.20;;;;;;1708093;28;20296;-80
2022/03/08 07:49:57;;;;;;;9.55;8.60;;;5.10;90.20;;;;;;1709297;28;20202;-79
2022/03/08 07:50:49;;;;;;;10.70;9.60;;;5.10;90.20;;;;;;1707884;28;20195;-80
2022/03/08 07:51:39;;;;;;;9.60;8.70;;;5.20;90.30;;;;;;1709558;28;20301;-79
2022/03/08 07:52:31;;;;;;;11.97;9.50;;;5.20;90.30;;;;;;1708706;28;20210;-80
2022/03/08 07:53:22;;;;;;;10.23;9.13;;;5.20;90.30;;;;;;1709338;28;20283;-79
2022/03/08 07:54:14;;;;;;;10.20;9.20;;;5.30;90.50;;;;;;1710449;28;20190;-79
2022/03/08 07:55:05;;;;;;;9.30;8.50;;;5.30;90.60;;;;;;1708397;28;20194;-79
2022/03/08 07:55:57;;;;;;;9.73;8.73;;;5.40;90.60;;;;;;1708433;28;20860;-80
2022/03/08 07:56:48;;;;;;;10.13;9.00;;;5.40;90.60;;;;;;1709146;28;20234;-80
2022/03/08 07:57:40;;;;;;;13.07;9.87;;;5.40;90.50;;;;;;1708974;28;20198;-79
2022/03/08 07:58:30;;;;;;;9.30;8.40;;;5.40;90.30;;;;;;1709157;28;20232;-79
2022/03/08 07:59:22;;;;;;;9.50;8.60;;;5.50;90.50;;;;;;1708724;28;20201;-79
2022/03/08 08:00:14;;;;;;;9.75;8.65;;;5.50;90.50;;;;;;1708330;28;20206;-80
2022/03/08 08:01:05;;;;;;;10.10;9.20;;;5.50;90.50;;;;;;1710620;28;20619;-80
2022/03/08 08:01:56;;;;;;;8.95;8.05;;;5.60;90.50;;;;;;1710875;28;20283;-80
2022/03/08 08:02:48;;;;;;;9.13;8.30;;;5.60;90.30;;;;;;1711019;28;20772;-79
2022/03/08 08:03:39;;;;;;;9.65;8.75;;;5.60;90.30;;;;;;1710826;28;20466;-80
2022/03/08 08:04:32;;;;;;;10.13;9.23;;;5.70;90.40;;;;;;1708772;28;20194;-79
2022/03/08 08:05:23;;;;;;;10.60;9.60;;;5.70;90.50;;;;;;1710817;28;20237;-80
2022/03/08 08:06:14;;;;;;;9.88;8.80;;;5.80;90.50;;;;;;1710740;28;20205;-79
2022/03/08 08:07:05;;;;;;;10.13;9.23;;;5.80;90.40;;;;;;1709608;28;20209;-80
2022/03/08 08:07:57;;;;;;;11.03;9.67;;;5.80;90.40;;;;;;1711121;28;20217;-79
2022/03/08 08:08:48;;;;;;;10.10;9.20;;;5.90;90.20;;;;;;1710296;28;20237;-80
2022/03/08 08:09:40;;;;;;;9.77;8.93;;;5.90;90.10;;;;;;1709695;28;20289;-80
2022/03/08 08:10:31;;;;;;;9.75;8.85;;;5.90;89.90;;;;;;1712227;28;20200;-79
2022/03/08 08:11:22;;;;;;;10.85;9.32;;;6.00;89.70;;;;;;1710591;28;20213;-80
2022/03/08 08:12:13;;;;;;;10.45;9.07;;;6.00;89.80;;;;;;1711740;28;20662;-79
2022/03/08 08:13:05;;;;;;;9.67;8.77;;;6.00;89.90;;;;;;1710507;28;20572;-79
2022/03/08 08:13:56;;;;;;;11.18;10.07;;;6.00;90.00;;;;;;1708389;28;20902;-79
2022/03/08 08:14:48;;;;;;;10.10;9.13;;;6.00;90.00;;;;;;1711226;28;20588;-79
2022/03/08 08:15:39;;;;;;;9.65;8.65;;;6.00;90.00;;;;;;1709915;28;20206;-79
2022/03/08 08:16:31;;;;;;;11.27;10.18;;;6.10;90.10;;;;;;1710338;28;20201;-79
2022/03/08 08:17:22;;;;;;;10.07;8.35;;;6.10;89.80;;;;;;1709617;28;20207;-80
2022/03/08 08:18:15;;;;;;;9.90;9.00;;;6.10;89.80;;;;;;1708840;28;20650;-80
2022/03/08 08:19:06;;;;;;;10.05;9.02;;;6.10;89.70;;;;;;1708728;28;20244;-80
2022/03/08 08:20:00;;;;;;;9.73;8.80;;;6.10;89.70;;;;;;1708680;28;20214;-79
2022/03/08 08:20:50;;;;;;;10.60;9.60;;;6.20;89.80;;;;;;1710769;28;20926;-79
2022/03/08 08:21:42;;;;;;;10.00;9.10;;;6.20;89.80;;;;;;1710312;28;20661;-79
2022/03/08 08:22:33;;;;;;;9.75;8.88;;;6.30;89.90;;;;;;1710477;28;20620;-79
2022/03/08 08:23:24;;;;;;;10.97;9.97;;;6.30;89.90;;;;;;1708863;28;20214;-80
2022/03/08 08:24:15;;;;;;;10.13;9.23;;;6.30;90.10;;;;;;1708493;28;20210;-78
2022/03/08 08:25:09;;;;;;;10.17;9.10;;;6.40;90.20;;;;;;1710261;28;20202;-79
2022/03/08 08:25:59;;;;;;;10.27;9.32;;;6.40;90.10;;;;;;1709820;28;20241;-78
2022/03/08 08:26:51;;;;;;;12.10;9.03;;;6.40;90.00;;;;;;1709129;28;20205;-79
2022/03/08 08:27:42;;;;;;;10.15;9.25;;;6.50;90.00;;;;;;1708258;28;20245;-79
2022/03/08 08:28:34;;;;;;;11.33;9.30;;;6.50;89.50;;;;;;1709372;28;20213;-79
2022/03/08 08:29:25;;;;;;;9.60;8.75;;;6.60;89.40;;;;;;1709818;28;20753;-79
2022/03/08 08:30:18;;;;;;;10.70;9.80;;;6.60;89.60;;;;;;1709205;28;20647;-79
2022/03/08 08:31:09;;;;;;;10.65;9.55;;;6.60;90.00;;;;;;1709767;28;20221;-79
2022/03/08 08:32:00;;;;;;;10.20;9.20;;;6.70;89.70;;;;;;1709669;28;20218;-78
2022/03/08 08:32:52;;;;;;;9.30;8.50;;;6.70;89.20;;;;;;1708973;28;20222;-79
2022/03/08 08:33:43;;;;;;;10.35;9.45;;;6.70;89.00;;;;;;1708741;28;20250;-78
2022/03/08 08:34:34;;;;;;;10.50;9.50;;;6.80;88.80;;;;;;1708922;28;20202;-79
2022/03/08 08:35:27;;;;;;;9.95;8.98;;;6.80;88.90;;;;;;1710125;28;20238;-79
2022/03/08 08:36:18;;;;;;;11.02;8.90;;;6.80;88.90;;;;;;1709414;28;20225;-79
2022/03/08 08:37:09;;;;;;;9.25;8.43;;;6.90;89.10;;;;;;1709592;28;20241;-79
2022/03/08 08:38:01;;;;;;;10.60;9.50;;;6.90;89.20;;;;;;1710005;28;20206;-79
2022/03/08 08:38:52;;;;;;;9.90;8.90;;;6.90;89.40;;;;;;1709049;28;20508;-79
2022/03/08 08:39:44;;;;;;;10.90;9.90;;;7.00;89.20;;;;;;1708809;28;20221;-79
2022/03/08 08:40:35;;;;;;;10.80;8.88;;;7.00;89.00;;;;;;1709351;28;20495;-79
2022/03/08 08:41:27;;;;;;;11.32;10.02;;;7.10;88.90;;;;;;1708906;28;20191;-79
2022/03/08 08:42:18;;;;;;;11.02;9.93;;;7.10;88.70;;;;;;1709223;28;20202;-79
2022/03/08 08:43:10;;;;;;;10.90;9.18;;;7.20;88.60;;;;;;1709445;28;20195;-79
2022/03/08 08:44:01;;;;;;;9.70;8.90;;;7.20;88.50;;;;;;1709119;28;20237;-79
2022/03/08 08:44:52;;;;;;;10.10;9.13;;;7.20;88.60;;;;;;1709850;28;20286;-78
2022/03/08 08:45:43;;;;;;;10.43;9.40;;;7.20;88.50;;;;;;1709970;28;20195;-79
2022/03/08 08:46:35;;;;;;;10.17;9.17;;;7.30;88.50;;;;;;1710364;28;20200;-79
2022/03/08 08:47:26;;;;;;;10.32;9.02;;;7.30;88.70;;;;;;1708448;28;20207;-79
2022/03/08 08:48:19;;;;;;;9.82;8.85;;;7.30;88.40;;;;;;1709999;28;20252;-79
2022/03/08 08:49:10;;;;;;;10.30;9.40;;;7.40;88.30;;;;;;1711186;28;20611;-79
2022/03/08 08:50:01;;;;;;;9.50;8.70;;;7.40;88.10;;;;;;1708662;28;20578;-79
2022/03/08 08:50:54;;;;;;;10.02;8.88;;;7.40;87.90;;;;;;1708301;28;20209;-79
2022/03/08 08:51:45;;;;;;;10.48;9.55;;;7.50;88.00;;;;;;1709781;28;20322;-78
2022/03/08 08:52:37;;;;;;;9.87;9.03;;;7.50;87.80;;;;;;1708841;28;20303;-80
2022/03/08 08:53:29;;;;;;;10.10;9.10;;;7.50;87.50;;;;;;1708736;28;20659;-79
2022/03/08 08:54:19;;;;;;;10.52;9.32;;;7.60;87.50;;;;;;1707931;28;20202;-79
2022/03/08 08:55:11;;;;;;;9.77;8.83;;;7.60;87.60;;;;;;1708941;28;20194;-79
2022/03/08 08:56:02;;;;;;;8.88;8.05;;;7.70;87.30;;;;;;1709377;28;20226;-78
2022/03/08 08:56:54;;;;;;;9.80;8.80;;;7.70;87.10;;;;;;1710178;28;20213;-79
2022/03/08 08:57:45;;;;;;;9.40;8.50;;;7.70;86.90;;;;;;1709430;28;20485;-79
2022/03/08 08:58:37;;;;;;;9.17;8.27;;;7.80;86.60;;;;;;1709438;28;20657;-79
2022/03/08 08:59:27;;;;;;;9.00;8.20;;;7.80;86.60;;;;;;1708732;28;20493;-79
2022/03/08 09:00:19;;;;;;;13.70;10.10;;;7.80;86.80;;;;;;1709574;28;20198;-80
2022/03/08 09:01:10;;;;;;;11.48;9.88;;;7.90;87.10;;;;;;1709949;28;20210;-80
2022/03/08 09:02:02;;;;;;;12.10;9.53;;;8.00;86.80;;;;;;1708910;28;20741;-79
2022/03/08 09:02:53;;;;;;;9.93;8.90;;;8.00;86.70;;;;;;1710131;28;20217;-79
2022/03/08 09:03:44;;;;;;;8.97;8.17;;;8.10;86.80;;;;;;1709081;28;20228;-78
2022/03/08 09:04:36;;;;;;;8.68;7.97;;;8.20;86.30;;;;;;1709677;28;20447;-79
2022/03/08 09:05:27;;;;;;;9.63;8.32;;;8.20;86.00;;;;;;1709779;28;20298;-80
2022/03/08 09:06:19;;;;;;;8.77;7.88;;;8.30;85.80;;;;;;1709577;28;20202;-79
2022/03/08 09:07:11;;;;;;;8.40;7.43;;;8.40;85.40;;;;;;1710054;28;20202;-79
2022/03/08 09:08:02;;;;;;;8.18;7.40;;;8.50;85.10;;;;;;1708179;28;20648;-80
2022/03/08 09:08:54;;;;;;;9.50;8.40;;;8.60;85.00;;;;;;1709200;28;20575;-79
2022/03/08 09:09:47;;;;;;;12.70;7.72;;;8.70;84.80;;;;;;1710029;28;20504;-79
2022/03/08 09:10:38;;;;;;;8.07;7.38;;;8.80;84.30;;;;;;1708548;28;20265;-79
2022/03/08 09:11:29;;;;;;;7.80;7.13;;;8.80;83.80;;;;;;1708152;28;20201;-79
2022/03/08 09:12:21;;;;;;;7.73;7.13;;;8.90;83.70;;;;;;1709326;28;20298;-79
2022/03/08 09:13:12;;;;;;;8.95;7.45;;;9.00;83.60;;;;;;1707660;28;20209;-79
2022/03/08 09:14:04;;;;;;;8.60;7.37;;;9.10;84.00;;;;;;1709627;28;20317;-79
2022/03/08 09:14:55;;;;;;;7.78;7.07;;;9.20;83.90;;;;;;1708388;28;20241;-79
2022/03/08 09:15:46;;;;;;;7.90;7.17;;;9.40;83.70;;;;;;1709116;28;20210;-79
2022/03/08 09:16:37;;;;;;;7.43;6.70;;;9.50;83.00;;;;;;1709326;28;20237;-79
2022/03/08 09:17:29;;;;;;;8.53;7.83;;;9.60;82.30;;;;;;1709622;28;20210;-79
2022/03/08 09:18:20;;;;;;;7.78;7.07;;;9.70;82.00;;;;;;1708612;28;20458;-79
2022/03/08 09:19:12;;;;;;;11.13;7.73;;;9.80;81.60;;;;;;1709499;28;20204;-79
2022/03/08 09:20:04;;;;;;;7.30;6.65;;;9.90;81.40;;;;;;1711852;28;20237;-81
2022/03/08 09:20:56;;;;;;;8.18;6.55;;;9.90;81.30;;;;;;1710186;28;20412;-81
2022/03/08 09:21:48;;;;;;;7.75;6.95;;;10.00;81.30;;;;;;1709856;28;20233;-81
2022/03/08 09:22:40;;;;;;;8.20;7.50;;;10.10;81.30;;;;;;1711418;28;20198;-81
2022/03/08 09:23:31;;;;;;;8.52;6.80;;;10.20;81.00;;;;;;1710264;28;20218;-81
2022/03/08 09:24:22;;;;;;;7.47;6.87;;;10.40;80.60;;;;;;1711149;28;20207;-81
2022/03/08 09:25:13;;;;;;;7.25;6.55;;;10.50;80.20;;;;;;1709761;28;20206;-82
2022/03/08 09:26:06;;;;;;;7.30;6.70;;;10.50;80.20;;;;;;1711532;28;20208;-82
2022/03/08 09:26:56;;;;;;;10.88;7.13;;;10.70;80.30;;;;;;1712400;28;20207;-81
2022/03/08 09:27:48;;;;;;;7.30;6.60;;;10.80;80.10;;;;;;1710862;28;20205;-82
2022/03/08 09:28:40;;;;;;;7.68;7.03;;;10.90;80.10;;;;;;1711299;28;20604;-81
2022/03/08 09:29:31;;;;;;;7.00;6.30;;;11.10;80.10;;;;;;1709791;28;20671;-82
2022/03/08 09:30:23;;;;;;;7.57;6.80;;;11.30;80.10;;;;;;1710754;28;20207;-81
2022/03/08 09:31:13;;;;;;;7.30;6.60;;;11.40;79.70;;;;;;1711014;28;20234;-82
2022/03/08 09:32:06;;;;;;;7.30;6.70;;;11.60;79.40;;;;;;1709216;28;20216;-82
2022/03/08 09:32:58;;;;;;;7.43;6.82;;;11.80;78.70;;;;;;1711195;28;20626;-81
2022/03/08 09:33:50;;;;;;;7.97;7.30;;;12.00;78.20;;;;;;1711000;28;20226;-82
2022/03/08 09:34:41;;;;;;;7.20;6.50;;;12.10;77.90;;;;;;1710598;28;20720;-81
2022/03/08 09:35:33;;;;;;;7.47;6.83;;;12.30;77.60;;;;;;1710895;28;20587;-82
2022/03/08 09:36:24;;;;;;;7.85;7.15;;;12.50;77.20;;;;;;1710224;28;20454;-82
2022/03/08 09:37:17;;;;;;;7.40;6.80;;;12.70;76.90;;;;;;1709451;28;20277;-81
2022/03/08 09:38:11;;;;;;;8.15;7.30;;;12.80;76.40;;;;;;1710029;28;20579;-82
2022/03/08 09:39:02;;;;;;;7.80;6.97;;;12.80;76.10;;;;;;1711017;28;20229;-81
2022/03/08 09:39:54;;;;;;;7.72;6.97;;;12.70;75.60;;;;;;1709135;28;20191;-81
2022/03/08 09:40:46;;;;;;;8.75;7.80;;;12.70;75.70;;;;;;1710339;28;20253;-82
2022/03/08 09:41:38;;;;;;;8.43;7.68;;;12.80;76.00;;;;;;1709173;28;20197;-81
2022/03/08 09:42:30;;;;;;;7.22;6.63;;;12.90;75.80;;;;;;1710860;28;20218;-82
2022/03/08 09:43:22;;;;;;;8.48;7.68;;;12.90;75.40;;;;;;1710835;28;20201;-81
2022/03/08 09:44:14;;;;;;;8.43;7.60;;;12.90;75.60;;;;;;1710263;28;20202;-81
2022/03/08 09:45:06;;;;;;;7.50;6.90;;;13.00;75.70;;;;;;1709074;28;20646;-82
2022/03/08 09:45:58;;;;;;;8.00;7.30;;;13.10;75.70;;;;;;1710744;28;20256;-82
2022/03/08 09:46:48;;;;;;;7.88;7.28;;;13.20;75.50;;;;;;1709903;28;20657;-82
2022/03/08 09:47:40;;;;;;;8.57;7.20;;;13.30;75.70;;;;;;1710103;28;20642;-81
2022/03/08 09:48:31;;;;;;;8.23;7.43;;;13.50;75.60;;;;;;1708427;28;20213;-81
2022/03/08 09:49:23;;;;;;;8.60;7.80;;;13.60;75.00;;;;;;1710233;28;20289;-82
2022/03/08 09:50:14;;;;;;;8.75;7.45;;;13.80;74.60;;;;;;1710318;28;20236;-82
2022/03/08 09:51:06;;;;;;;8.13;7.43;;;13.90;74.30;;;;;;1710662;28;20672;-81
2022/03/08 09:51:57;;;;;;;7.50;6.80;;;14.10;73.70;;;;;;1710311;28;20237;-82
2022/03/08 09:52:54;;;;;;;7.13;6.43;;;14.20;73.60;;;;;;1710973;28;20256;-82
2022/03/08 09:53:46;;;;;;;7.28;6.72;;;14.30;73.00;;;;;;1708246;28;20221;-82
2022/03/08 09:54:38;;;;;;;7.53;6.82;;;14.30;72.70;;;;;;1709654;28;20207;-82
2022/03/08 09:55:28;;;;;;;7.82;7.13;;;14.40;72.70;;;;;;1709651;28;20281;-82
2022/03/08 09:56:20;;;;;;;7.33;6.73;;;14.40;72.40;;;;;;1708413;28;20201;-82
2022/03/08 09:57:13;;;;;;;7.07;6.45;;;14.50;72.30;;;;;;1704684;28;20461;-82
2022/03/08 09:58:05;;;;;;;7.82;6.88;;;14.50;72.10;;;;;;1701735;29;20226;-82
2022/03/08 09:58:56;;;;;;;8.13;7.50;;;14.60;72.10;;;;;;1701363;29;20204;-82
2022/03/08 09:59:48;;;;;;;8.50;6.80;;;14.70;72.00;;;;;;1703139;29;20203;-82
2022/03/08 10:00:38;;;;;;;7.80;7.10;;;14.70;71.80;;;;;;1702739;29;20616;-82
2022/03/08 10:01:30;;;;;;;7.77;7.10;;;14.80;71.90;;;;;;1703315;29;20203;-82
2022/03/08 10:02:22;;;;;;;7.85;7.15;;;14.90;72.10;;;;;;1703400;28;20699;-82
2022/03/08 10:03:13;;;;;;;8.48;7.75;;;14.90;72.00;;;;;;1710275;28;20289;-82
2022/03/08 10:04:06;;;;;;;9.10;7.40;;;15.00;71.90;;;;;;1709399;28;20224;-83
2022/03/08 10:05:06;;;;;;;7.65;6.90;;;15.10;71.30;;;;;;1708319;28;20538;-82
2022/03/08 10:05:57;;;;;;;7.40;6.70;;;15.10;71.20;;;;;;1709516;28;20205;-82
2022/03/08 10:06:50;;;;;;;9.07;7.30;;;15.10;71.40;;;;;;1709431;28;20199;-82
2022/03/08 10:08:04;;;;;;;7.45;6.85;;;15.20;71.50;;;;;;1710197;28;20206;-82
2022/03/08 10:09:10;;;;;;;9.43;6.90;;;15.30;71.20;;;;;;1709113;28;20205;-82
2022/03/08 10:10:02;;;;;;;7.30;6.60;;;15.40;70.70;;;;;;1709646;28;20202;-82
2022/03/08 10:10:58;;;;;;;7.75;7.15;;;15.40;70.50;;;;;;1709672;28;20198;-83
2022/03/08 10:11:50;;;;;;;7.43;6.82;;;15.40;70.40;;;;;;1709208;28;20273;-82
2022/03/08 10:12:55;;;;;;;7.78;7.18;;;15.50;70.50;;;;;;1708216;28;20769;-82
2022/03/08 10:13:50;;;;;;;7.55;6.85;;;15.50;70.50;;;;;;1709920;28;20230;-82
2022/03/08 10:14:41;;;;;;;7.80;7.10;;;15.60;70.10;;;;;;1710526;28;20237;-82
2022/03/08 10:15:33;;;;;;;7.65;6.93;;;15.70;69.90;;;;;;1710613;28;20213;-82
2022/03/08 10:16:27;;;;;;;6.90;6.30;;;15.70;69.60;;;;;;1710552;28;20234;-82
2022/03/08 10:17:37;;;;;;;8.07;7.25;;;15.80;69.40;;;;;;1710287;28;20203;-81
2022/03/08 10:18:31;;;;;;;7.50;6.85;;;15.80;69.20;;;;;;1710786;28;20206;-82
2022/03/08 10:19:24;;;;;;;7.80;7.10;;;15.80;69.10;;;;;;1709884;28;20198;-81
2022/03/08 10:20:28;;;;;;;7.32;6.60;;;15.90;69.30;;;;;;1709980;28;20203;-82
2022/03/08 10:21:29;;;;;;;8.52;6.97;;;16.00;69.20;;;;;;1711549;28;20203;-82
2022/03/08 10:22:28;;;;;;;6.68;6.13;;;16.10;69.00;;;;;;1711261;28;20261;-81
2022/03/08 10:23:20;;;;;;;7.40;6.70;;;16.10;68.80;;;;;;1706791;28;20209;-82
2022/03/08 10:24:17;;;;;;;7.30;6.53;;;16.10;68.70;;;;;;1711358;28;20206;-82
2022/03/08 10:25:13;;;;;;;8.30;6.55;;;16.20;68.00;;;;;;1710663;28;20195;-82
2022/03/08 10:26:05;;;;;;;7.07;6.47;;;16.20;67.90;;;;;;1709689;28;20202;-82
2022/03/08 10:26:59;;;;;;;7.80;7.10;;;16.30;67.80;;;;;;1711337;28;20202;-82
2022/03/08 10:27:59;;;;;;;7.47;6.78;;;16.30;67.20;;;;;;1709174;28;20217;-82
2022/03/08 10:28:54;;;;;;;8.52;6.75;;;16.30;67.00;;;;;;1710582;28;20202;-82
2022/03/08 10:29:49;;;;;;;6.78;6.28;;;16.10;66.90;;;;;;1710207;28;20616;-82
2022/03/08 10:30:51;;;;;;;7.90;7.10;;;16.10;67.20;;;;;;1710997;28;20202;-81
2022/03/08 10:31:42;;;;;;;7.50;6.85;;;16.10;67.50;;;;;;1710068;28;20673;-82